Nbp Island — V2FH3 — position and weather

sailwx.info

Track history (hours):
 
Tides and Currents Weather Stations Pressure Air Temp Water Temp Dewpoint Dewpoint Depression Visibility Wind Speed Wind Dir Waves Ship Positions

Nbp Island

Last reported at 2014-Oct-30 21:14 UTC. Time now 2014-Nov-01 01:49 UTC.
Position N 37°55' E 024°35'.

Length 107 m; draft 7.7 m.

Type: Cargo ship. MMSI: 305674000.

Date/timePositionNaut miles runAvg speedWind from/ knotsBaromVisibWave heightAir tempDewpointWater temp
2014-Oct-30 21:14N 37°55' E 024°35'6 9.3
2014-Oct-30 20:32N 37°51' E 024°29'10 9.5
2014-Oct-30 19:28N 37°44' E 024°19'10 9.3
2014-Oct-30 18:20N 37°36' E 024°11'11 9.8
2014-Oct-30 17:11N 37°27' E 024°03'465 9.2
2014-Oct-28 14:27N 36°29' E 014°25'44810.0
2014-Oct-26 17:33N 37°19' E 005°08'1512.6
2014-Oct-26 16:22N 37°18' E 004°50'6 7.5
2014-Oct-26 15:33N 37°17' E 004°42'1010.1
2014-Oct-26 14:33N 37°17' E 004°29'1010.2
2014-Oct-26 13:33N 37°15' E 004°17'1010.3
2014-Oct-26 12:33N 37°14' E 004°04'1010.2
2014-Oct-26 11:33N 37°13' E 003°51'1110.4
2014-Oct-26 10:30N 37°12' E 003°37'5110.4
2014-Oct-26 05:33N 37°07' E 002°33'5710.7
2014-Oct-26 00:15N 37°02' E 001°23'12 9.7
2014-Oct-25 23:03N 37°01' E 001°08'5 9.8
2014-Oct-25 22:33N 37°00' E 001°02'10 9.4
2014-Oct-25 21:32N 36°58' E 000°50'9 9.5
2014-Oct-25 20:33N 36°56' E 000°39'10 9.5
2014-Oct-25 19:33N 36°53' E 000°28'9 9.1
2014-Oct-25 18:33N 36°51' E 000°17'9 9.3
2014-Oct-25 17:33N 36°49' E 000°05'9 9.2
2014-Oct-25 16:33N 36°47' W 000°06'10 9.3
2014-Oct-25 15:28N 36°44' W 000°18'9 9.3
2014-Oct-25 14:32N 36°42' W 000°29'23110.3
2014-Oct-24 16:12N 35°59' W 005°10'711.2
2014-Oct-24 15:33N 35°58' W 005°19'139 9.3
2014-Oct-24 00:33N 36°19' W 008°10'1010.2
2014-Oct-23 23:32N 36°22' W 008°22'84 9.2
2014-Oct-23 14:29N 37°16' W 009°41'1010.3
2014-Oct-23 13:33N 37°26' W 009°44'1010.2
2014-Oct-23 12:33N 37°36' W 009°47'1010.2
2014-Oct-23 11:33N 37°45' W 009°50'1010.2
2014-Oct-23 10:33N 37°55' W 009°53'1010.2
2014-Oct-23 09:33N 38°05' W 009°56'1010.3
2014-Oct-23 08:33N 38°15' W 009°59'1010.3
2014-Oct-23 07:33N 38°25' W 010°02'1010.1
2014-Oct-23 06:33N 38°35' W 010°05'1010.0
2014-Oct-23 05:33N 38°45' W 010°07'1110.6
2014-Oct-23 04:33N 38°56' W 010°06'1110.7
2014-Oct-23 03:33N 39°07' W 010°06'1010.4
2014-Oct-23 02:33N 39°17' W 010°07'1110.3
2014-Oct-23 01:28N 39°28' W 010°07'  
Track history (hours):
 
Tides and Currents Weather Stations Pressure Air Temp Water Temp Dewpoint Dewpoint Depression Visibility Wind Speed Wind Dir Waves Ship Positions

Nbp Island

Last reported at 2014-Oct-30 21:14 UTC. Time now 2014-Nov-01 01:49 UTC.
Position N 37°55' E 024°35'.

Length 107 m; draft 7.7 m.

Type: Cargo ship. MMSI: 305674000.

Date/timePositionNaut miles runAvg speedWind from/ knotsBaromVisibWave heightAir tempDewpointWater temp
2014-Oct-30 21:14N 37°55' E 024°35'6 9.3
2014-Oct-30 20:32N 37°51' E 024°29'10 9.5
2014-Oct-30 19:28N 37°44' E 024°19'10 9.3
2014-Oct-30 18:20N 37°36' E 024°11'11 9.8
2014-Oct-30 17:11N 37°27' E 024°03'465 9.2
2014-Oct-28 14:27N 36°29' E 014°25'44810.0
2014-Oct-26 17:33N 37°19' E 005°08'1512.6
2014-Oct-26 16:22N 37°18' E 004°50'6 7.5
2014-Oct-26 15:33N 37°17' E 004°42'1010.1
2014-Oct-26 14:33N 37°17' E 004°29'1010.2
2014-Oct-26 13:33N 37°15' E 004°17'1010.3
2014-Oct-26 12:33N 37°14' E 004°04'1010.2
2014-Oct-26 11:33N 37°13' E 003°51'1110.4
2014-Oct-26 10:30N 37°12' E 003°37'5110.4
2014-Oct-26 05:33N 37°07' E 002°33'5710.7
2014-Oct-26 00:15N 37°02' E 001°23'12 9.7
2014-Oct-25 23:03N 37°01' E 001°08'5 9.8
2014-Oct-25 22:33N 37°00' E 001°02'10 9.4
2014-Oct-25 21:32N 36°58' E 000°50'9 9.5
2014-Oct-25 20:33N 36°56' E 000°39'10 9.5
2014-Oct-25 19:33N 36°53' E 000°28'9 9.1
2014-Oct-25 18:33N 36°51' E 000°17'9 9.3
2014-Oct-25 17:33N 36°49' E 000°05'9 9.2
2014-Oct-25 16:33N 36°47' W 000°06'10 9.3
2014-Oct-25 15:28N 36°44' W 000°18'9 9.3
2014-Oct-25 14:32N 36°42' W 000°29'23110.3
2014-Oct-24 16:12N 35°59' W 005°10'711.2
2014-Oct-24 15:33N 35°58' W 005°19'139 9.3
2014-Oct-24 00:33N 36°19' W 008°10'1010.2
2014-Oct-23 23:32N 36°22' W 008°22'84 9.2
2014-Oct-23 14:29N 37°16' W 009°41'1010.3
2014-Oct-23 13:33N 37°26' W 009°44'1010.2
2014-Oct-23 12:33N 37°36' W 009°47'1010.2
2014-Oct-23 11:33N 37°45' W 009°50'1010.2
2014-Oct-23 10:33N 37°55' W 009°53'1010.2
2014-Oct-23 09:33N 38°05' W 009°56'1010.3
2014-Oct-23 08:33N 38°15' W 009°59'1010.3
2014-Oct-23 07:33N 38°25' W 010°02'1010.1
2014-Oct-23 06:33N 38°35' W 010°05'1010.0
2014-Oct-23 05:33N 38°45' W 010°07'1110.6
2014-Oct-23 04:33N 38°56' W 010°06'1110.7
2014-Oct-23 03:33N 39°07' W 010°06'1010.4
2014-Oct-23 02:33N 39°17' W 010°07'1110.3
2014-Oct-23 01:28N 39°28' W 010°07'  

Dump ship's entire track history